sensor_id;sensor_type;location;lat;lon;timestamp;temperature;humidity
17851;DHT22;9051;51.548;14.348;2023-01-16T00:00:40;4.50;99.90
17851;DHT22;9051;51.548;14.348;2023-01-16T00:03:12;4.60;99.90
17851;DHT22;9051;51.548;14.348;2023-01-16T00:05:44;4.50;99.90
17851;DHT22;9051;51.548;14.348;2023-01-16T00:08:16;4.50;99.90
17851;DHT22;9051;51.548;14.348;2023-01-16T00:10:48;4.50;99.90
17851;DHT22;9051;51.548;14.348;2023-01-16T00:13:23;4.60;99.90
17851;DHT22;9051;51.548;14.348;2023-01-16T00:15:54;4.50;99.90
17851;DHT22;9051;51.548;14.348;2023-01-16T00:18:26;4.50;99.90
17851;DHT22;9051;51.548;14.348;2023-01-16T00:20:59;4.40;99.90
17851;DHT22;9051;51.548;14.348;2023-01-16T00:23:31;4.40;99.90
17851;DHT22;9051;51.548;14.348;2023-01-16T00:26:05;4.50;99.90
17851;DHT22;9051;51.548;14.348;2023-01-16T00:28:38;4.50;99.90
17851;DHT22;9051;51.548;14.348;2023-01-16T00:31:10;4.50;99.90
17851;DHT22;9051;51.548;14.348;2023-01-16T00:33:43;4.50;99.90
17851;DHT22;9051;51.548;14.348;2023-01-16T00:36:15;4.50;99.90
17851;DHT22;9051;51.548;14.348;2023-01-16T00:38:47;4.50;99.90
17851;DHT22;9051;51.548;14.348;2023-01-16T00:41:20;4.50;99.90
17851;DHT22;9051;51.548;14.348;2023-01-16T00:43:53;4.50;99.90
17851;DHT22;9051;51.548;14.348;2023-01-16T00:46:29;4.50;99.90
17851;DHT22;9051;51.548;14.348;2023-01-16T00:49:01;4.50;99.90
17851;DHT22;9051;51.548;14.348;2023-01-16T00:51:33;4.50;99.90
17851;DHT22;9051;51.548;14.348;2023-01-16T00:54:05;4.50;99.90
17851;DHT22;9051;51.548;14.348;2023-01-16T00:56:38;4.50;99.90
17851;DHT22;9051;51.548;14.348;2023-01-16T00:59:12;4.50;99.90
17851;DHT22;9051;51.548;14.348;2023-01-16T01:01:44;4.50;99.90
17851;DHT22;9051;51.548;14.348;2023-01-16T01:04:16;4.60;99.90
17851;DHT22;9051;51.548;14.348;2023-01-16T01:06:48;4.70;99.90
17851;DHT22;9051;51.548;14.348;2023-01-16T01:09:22;4.70;99.90
17851;DHT22;9051;51.548;14.348;2023-01-16T01:11:56;4.70;99.90
17851;DHT22;9051;51.548;14.348;2023-01-16T01:14:29;4.70;99.90
17851;DHT22;9051;51.548;14.348;2023-01-16T01:17:01;4.70;99.90
17851;DHT22;9051;51.548;14.348;2023-01-16T01:19:34;4.70;99.90
17851;DHT22;9051;51.548;14.348;2023-01-16T01:22:07;4.70;99.90
17851;DHT22;9051;51.548;14.348;2023-01-16T01:24:39;4.70;99.90
17851;DHT22;9051;51.548;14.348;2023-01-16T01:27:11;4.60;99.90
17851;DHT22;9051;51.548;14.348;2023-01-16T01:29:44;4.60;99.90
17851;DHT22;9051;51.548;14.348;2023-01-16T01:32:16;4.50;99.90
17851;DHT22;9051;51.548;14.348;2023-01-16T01:34:48;4.40;99.90
17851;DHT22;9051;51.548;14.348;2023-01-16T01:37:21;4.40;99.90
17851;DHT22;9051;51.548;14.348;2023-01-16T01:39:54;4.30;99.90
17851;DHT22;9051;51.548;14.348;2023-01-16T01:42:26;4.20;99.90
17851;DHT22;9051;51.548;14.348;2023-01-16T01:45:19;4.20;99.90
17851;DHT22;9051;51.548;14.348;2023-01-16T01:47:55;4.20;99.90
17851;DHT22;9051;51.548;14.348;2023-01-16T01:50:36;4.10;99.90
17851;DHT22;9051;51.548;14.348;2023-01-16T01:53:15;4.00;99.90
17851;DHT22;9051;51.548;14.348;2023-01-16T01:55:49;3.90;99.90
17851;DHT22;9051;51.548;14.348;2023-01-16T01:58:22;3.80;99.90
17851;DHT22;9051;51.548;14.348;2023-01-16T02:00:59;3.70;99.90
17851;DHT22;9051;51.548;14.348;2023-01-16T02:03:35;3.60;99.90
17851;DHT22;9051;51.548;14.348;2023-01-16T02:06:13;3.60;99.90
17851;DHT22;9051;51.548;14.348;2023-01-16T02:08:47;3.50;99.90
17851;DHT22;9051;51.548;14.348;2023-01-16T02:11:25;3.40;99.90
17851;DHT22;9051;51.548;14.348;2023-01-16T02:14:00;3.40;99.90
17851;DHT22;9051;51.548;14.348;2023-01-16T02:16:35;3.30;99.90
17851;DHT22;9051;51.548;14.348;2023-01-16T02:19:32;3.30;99.90
17851;DHT22;9051;51.548;14.348;2023-01-16T02:29:04;3.20;99.90
17851;DHT22;9051;51.548;14.348;2023-01-16T02:31:48;3.20;99.90
17851;DHT22;9051;51.548;14.348;2023-01-16T02:34:38;3.20;99.90
17851;DHT22;9051;51.548;14.348;2023-01-16T02:37:23;3.10;99.90
17851;DHT22;9051;51.548;14.348;2023-01-16T02:40:04;3.10;99.90
17851;DHT22;9051;51.548;14.348;2023-01-16T02:42:43;3.00;99.90
17851;DHT22;9051;51.548;14.348;2023-01-16T02:45:20;3.00;99.90
17851;DHT22;9051;51.548;14.348;2023-01-16T02:47:58;2.90;99.90
17851;DHT22;9051;51.548;14.348;2023-01-16T02:50:39;2.90;99.90
17851;DHT22;9051;51.548;14.348;2023-01-16T02:53:17;2.80;99.90
17851;DHT22;9051;51.548;14.348;2023-01-16T02:55:54;2.80;99.90
17851;DHT22;9051;51.548;14.348;2023-01-16T02:58:29;2.90;99.90
17851;DHT22;9051;51.548;14.348;2023-01-16T03:01:02;3.00;99.90
17851;DHT22;9051;51.548;14.348;2023-01-16T03:03:41;3.00;99.90
17851;DHT22;9051;51.548;14.348;2023-01-16T03:06:30;3.00;99.90
17851;DHT22;9051;51.548;14.348;2023-01-16T03:09:12;3.10;99.90
17851;DHT22;9051;51.548;14.348;2023-01-16T03:11:55;3.10;99.90
17851;DHT22;9051;51.548;14.348;2023-01-16T03:14:36;3.00;99.90
17851;DHT22;9051;51.548;14.348;2023-01-16T03:17:17;3.10;99.90
17851;DHT22;9051;51.548;14.348;2023-01-16T03:20:13;3.00;99.90
17851;DHT22;9051;51.548;14.348;2023-01-16T03:22:54;3.10;99.90
17851;DHT22;9051;51.548;14.348;2023-01-16T03:25:34;3.00;99.90
17851;DHT22;9051;51.548;14.348;2023-01-16T03:28:13;3.00;99.90
17851;DHT22;9051;51.548;14.348;2023-01-16T03:30:52;3.00;99.90
17851;DHT22;9051;51.548;14.348;2023-01-16T03:33:33;2.90;99.90
17851;DHT22;9051;51.548;14.348;2023-01-16T03:36:21;2.90;99.90
17851;DHT22;9051;51.548;14.348;2023-01-16T03:38:55;2.90;99.90
17851;DHT22;9051;51.548;14.348;2023-01-16T03:41:29;2.90;99.90
17851;DHT22;9051;51.548;14.348;2023-01-16T03:44:08;2.90;99.90
17851;DHT22;9051;51.548;14.348;2023-01-16T03:46:44;2.90;99.90
17851;DHT22;9051;51.548;14.348;2023-01-16T03:49:19;2.90;99.90
17851;DHT22;9051;51.548;14.348;2023-01-16T03:51:56;2.90;99.90
17851;DHT22;9051;51.548;14.348;2023-01-16T03:54:35;2.90;99.90
17851;DHT22;9051;51.548;14.348;2023-01-16T03:57:11;2.90;99.90
17851;DHT22;9051;51.548;14.348;2023-01-16T03:59:45;2.90;99.90
17851;DHT22;9051;51.548;14.348;2023-01-16T04:02:20;2.80;99.90
17851;DHT22;9051;51.548;14.348;2023-01-16T04:04:59;2.90;99.90
17851;DHT22;9051;51.548;14.348;2023-01-16T04:07:39;2.80;99.90
17851;DHT22;9051;51.548;14.348;2023-01-16T04:10:15;2.80;99.90
17851;DHT22;9051;51.548;14.348;2023-01-16T04:12:51;2.80;99.90
17851;DHT22;9051;51.548;14.348;2023-01-16T04:15:26;2.80;99.90
17851;DHT22;9051;51.548;14.348;2023-01-16T04:17:59;2.90;99.90
17851;DHT22;9051;51.548;14.348;2023-01-16T04:20:32;2.90;99.90
17851;DHT22;9051;51.548;14.348;2023-01-16T04:23:07;2.90;99.90
17851;DHT22;9051;51.548;14.348;2023-01-16T04:25:39;3.00;99.90
17851;DHT22;9051;51.548;14.348;2023-01-16T04:28:11;3.00;99.90
17851;DHT22;9051;51.548;14.348;2023-01-16T04:30:43;3.00;99.90
17851;DHT22;9051;51.548;14.348;2023-01-16T04:33:16;3.00;99.90
17851;DHT22;9051;51.548;14.348;2023-01-16T04:35:49;3.00;99.90
17851;DHT22;9051;51.548;14.348;2023-01-16T04:38:22;2.90;99.90
17851;DHT22;9051;51.548;14.348;2023-01-16T04:40:55;3.00;99.90
17851;DHT22;9051;51.548;14.348;2023-01-16T04:43:26;2.90;99.90
17851;DHT22;9051;51.548;14.348;2023-01-16T04:46:00;2.90;99.90
17851;DHT22;9051;51.548;14.348;2023-01-16T04:48:32;2.90;99.90
17851;DHT22;9051;51.548;14.348;2023-01-16T04:51:05;2.80;99.90
17851;DHT22;9051;51.548;14.348;2023-01-16T04:53:41;2.80;99.90
17851;DHT22;9051;51.548;14.348;2023-01-16T04:56:13;2.90;99.90
17851;DHT22;9051;51.548;14.348;2023-01-16T04:58:47;2.90;99.90
17851;DHT22;9051;51.548;14.348;2023-01-16T05:01:22;2.90;99.90
17851;DHT22;9051;51.548;14.348;2023-01-16T05:03:54;2.90;99.90
17851;DHT22;9051;51.548;14.348;2023-01-16T05:06:26;2.90;99.90
17851;DHT22;9051;51.548;14.348;2023-01-16T05:08:59;2.90;99.90
17851;DHT22;9051;51.548;14.348;2023-01-16T05:11:31;2.90;99.90
17851;DHT22;9051;51.548;14.348;2023-01-16T05:14:04;2.90;99.90
17851;DHT22;9051;51.548;14.348;2023-01-16T05:16:39;2.90;99.90
17851;DHT22;9051;51.548;14.348;2023-01-16T05:19:12;2.90;99.90
17851;DHT22;9051;51.548;14.348;2023-01-16T05:21:45;2.90;99.90
17851;DHT22;9051;51.548;14.348;2023-01-16T05:24:18;2.90;99.90
17851;DHT22;9051;51.548;14.348;2023-01-16T05:26:50;2.90;99.90
17851;DHT22;9051;51.548;14.348;2023-01-16T05:29:23;2.90;99.90
17851;DHT22;9051;51.548;14.348;2023-01-16T05:31:55;2.90;99.90
17851;DHT22;9051;51.548;14.348;2023-01-16T05:34:27;2.90;99.90
17851;DHT22;9051;51.548;14.348;2023-01-16T05:36:59;2.90;99.90
17851;DHT22;9051;51.548;14.348;2023-01-16T05:39:32;2.90;99.90
17851;DHT22;9051;51.548;14.348;2023-01-16T05:42:04;2.90;99.90
17851;DHT22;9051;51.548;14.348;2023-01-16T05:44:52;2.90;99.90
17851;DHT22;9051;51.548;14.348;2023-01-16T05:47:24;2.90;99.90
17851;DHT22;9051;51.548;14.348;2023-01-16T05:49:56;2.90;99.90
17851;DHT22;9051;51.548;14.348;2023-01-16T05:52:29;2.80;99.90
17851;DHT22;9051;51.548;14.348;2023-01-16T05:55:02;2.80;99.90
17851;DHT22;9051;51.548;14.348;2023-01-16T05:57:34;2.80;99.90
17851;DHT22;9051;51.548;14.348;2023-01-16T06:00:07;2.80;99.90
17851;DHT22;9051;51.548;14.348;2023-01-16T06:02:40;2.80;99.90
17851;DHT22;9051;51.548;14.348;2023-01-16T06:05:12;2.80;99.90
17851;DHT22;9051;51.548;14.348;2023-01-16T06:07:44;2.80;99.90
17851;DHT22;9051;51.548;14.348;2023-01-16T06:10:17;2.70;99.90
17851;DHT22;9051;51.548;14.348;2023-01-16T06:12:50;2.70;99.90
17851;DHT22;9051;51.548;14.348;2023-01-16T06:15:23;2.70;99.90
17851;DHT22;9051;51.548;14.348;2023-01-16T06:17:55;2.70;99.90
17851;DHT22;9051;51.548;14.348;2023-01-16T06:20:26;2.60;99.90
17851;DHT22;9051;51.548;14.348;2023-01-16T06:22:58;2.60;99.90
17851;DHT22;9051;51.548;14.348;2023-01-16T06:25:32;2.60;99.90
17851;DHT22;9051;51.548;14.348;2023-01-16T06:28:04;2.50;99.90
17851;DHT22;9051;51.548;14.348;2023-01-16T06:30:36;2.50;99.90
17851;DHT22;9051;51.548;14.348;2023-01-16T06:33:08;2.50;99.90
17851;DHT22;9051;51.548;14.348;2023-01-16T06:35:40;2.40;99.90
17851;DHT22;9051;51.548;14.348;2023-01-16T06:38:12;2.40;99.90
17851;DHT22;9051;51.548;14.348;2023-01-16T06:40:46;2.40;99.90
17851;DHT22;9051;51.548;14.348;2023-01-16T06:43:18;2.40;99.90
17851;DHT22;9051;51.548;14.348;2023-01-16T06:45:50;2.40;99.90
17851;DHT22;9051;51.548;14.348;2023-01-16T06:48:22;2.40;99.90
17851;DHT22;9051;51.548;14.348;2023-01-16T06:50:54;2.30;99.90
17851;DHT22;9051;51.548;14.348;2023-01-16T06:53:30;2.40;99.90
17851;DHT22;9051;51.548;14.348;2023-01-16T06:56:04;2.40;99.90
17851;DHT22;9051;51.548;14.348;2023-01-16T06:58:36;2.40;99.90
17851;DHT22;9051;51.548;14.348;2023-01-16T07:01:08;2.40;99.90
17851;DHT22;9051;51.548;14.348;2023-01-16T07:03:41;2.40;99.90
17851;DHT22;9051;51.548;14.348;2023-01-16T07:06:12;2.40;99.90
17851;DHT22;9051;51.548;14.348;2023-01-16T07:08:44;2.40;99.90
17851;DHT22;9051;51.548;14.348;2023-01-16T07:11:18;2.40;99.90
17851;DHT22;9051;51.548;14.348;2023-01-16T07:13:50;2.40;99.90
17851;DHT22;9051;51.548;14.348;2023-01-16T07:16:44;2.50;99.90
17851;DHT22;9051;51.548;14.348;2023-01-16T07:19:33;2.50;99.90
17851;DHT22;9051;51.548;14.348;2023-01-16T07:22:23;2.50;99.90
17851;DHT22;9051;51.548;14.348;2023-01-16T07:25:11;2.60;99.90
17851;DHT22;9051;51.548;14.348;2023-01-16T07:27:48;2.70;99.90
17851;DHT22;9051;51.548;14.348;2023-01-16T07:30:22;2.80;99.90
17851;DHT22;9051;51.548;14.348;2023-01-16T07:32:54;2.80;99.90
17851;DHT22;9051;51.548;14.348;2023-01-16T07:35:27;2.80;99.90
17851;DHT22;9051;51.548;14.348;2023-01-16T07:37:59;2.90;99.90
17851;DHT22;9051;51.548;14.348;2023-01-16T07:40:31;2.90;99.90
17851;DHT22;9051;51.548;14.348;2023-01-16T07:43:04;3.00;99.90
17851;DHT22;9051;51.548;14.348;2023-01-16T07:45:36;3.00;99.90
17851;DHT22;9051;51.548;14.348;2023-01-16T07:48:08;3.10;99.90
17851;DHT22;9051;51.548;14.348;2023-01-16T07:50:40;3.20;99.90
17851;DHT22;9051;51.548;14.348;2023-01-16T07:53:12;3.20;99.90
17851;DHT22;9051;51.548;14.348;2023-01-16T07:55:45;3.30;99.90
17851;DHT22;9051;51.548;14.348;2023-01-16T07:58:19;3.30;99.90
17851;DHT22;9051;51.548;14.348;2023-01-16T08:00:52;3.40;99.90
17851;DHT22;9051;51.548;14.348;2023-01-16T08:03:24;3.40;99.90
17851;DHT22;9051;51.548;14.348;2023-01-16T08:05:57;3.40;99.90
17851;DHT22;9051;51.548;14.348;2023-01-16T08:08:30;3.50;99.90
17851;DHT22;9051;51.548;14.348;2023-01-16T08:11:02;3.60;99.90
17851;DHT22;9051;51.548;14.348;2023-01-16T08:14:00;3.60;99.90
17851;DHT22;9051;51.548;14.348;2023-01-16T08:16:32;3.70;99.90
17851;DHT22;9051;51.548;14.348;2023-01-16T08:19:06;3.70;99.90
17851;DHT22;9051;51.548;14.348;2023-01-16T08:21:38;3.80;99.90
17851;DHT22;9051;51.548;14.348;2023-01-16T08:24:10;3.80;99.90
17851;DHT22;9051;51.548;14.348;2023-01-16T08:26:44;3.90;99.90
17851;DHT22;9051;51.548;14.348;2023-01-16T08:29:17;4.00;99.90
17851;DHT22;9051;51.548;14.348;2023-01-16T08:31:50;4.00;99.90
17851;DHT22;9051;51.548;14.348;2023-01-16T08:34:24;4.10;99.90
17851;DHT22;9051;51.548;14.348;2023-01-16T08:36:59;4.10;99.90
17851;DHT22;9051;51.548;14.348;2023-01-16T08:39:33;4.10;99.90
17851;DHT22;9051;51.548;14.348;2023-01-16T08:42:07;4.10;99.90
17851;DHT22;9051;51.548;14.348;2023-01-16T08:44:58;4.10;99.90
17851;DHT22;9051;51.548;14.348;2023-01-16T08:47:48;4.00;99.90
17851;DHT22;9051;51.548;14.348;2023-01-16T08:50:37;4.00;99.90
17851;DHT22;9051;51.548;14.348;2023-01-16T08:53:27;4.00;99.90
17851;DHT22;9051;51.548;14.348;2023-01-16T08:55:59;4.10;99.90
17851;DHT22;9051;51.548;14.348;2023-01-16T08:58:31;4.10;99.90
17851;DHT22;9051;51.548;14.348;2023-01-16T09:01:05;4.20;99.90
17851;DHT22;9051;51.548;14.348;2023-01-16T09:03:37;4.30;99.90
17851;DHT22;9051;51.548;14.348;2023-01-16T09:06:10;4.30;99.90
17851;DHT22;9051;51.548;14.348;2023-01-16T09:08:42;4.30;99.90
17851;DHT22;9051;51.548;14.348;2023-01-16T09:11:14;4.30;99.90
17851;DHT22;9051;51.548;14.348;2023-01-16T09:14:03;4.40;99.90
17851;DHT22;9051;51.548;14.348;2023-01-16T09:16:36;4.40;99.90
17851;DHT22;9051;51.548;14.348;2023-01-16T09:19:08;4.40;99.90
17851;DHT22;9051;51.548;14.348;2023-01-16T09:21:40;4.50;99.90
17851;DHT22;9051;51.548;14.348;2023-01-16T09:24:12;4.60;99.90
17851;DHT22;9051;51.548;14.348;2023-01-16T09:26:44;4.60;99.90
17851;DHT22;9051;51.548;14.348;2023-01-16T09:29:16;4.70;99.90
17851;DHT22;9051;51.548;14.348;2023-01-16T09:31:52;4.70;99.90
17851;DHT22;9051;51.548;14.348;2023-01-16T09:34:24;4.70;99.90
17851;DHT22;9051;51.548;14.348;2023-01-16T09:36:57;4.70;99.90
17851;DHT22;9051;51.548;14.348;2023-01-16T09:39:29;4.70;99.90
17851;DHT22;9051;51.548;14.348;2023-01-16T09:42:17;4.70;99.90
17851;DHT22;9051;51.548;14.348;2023-01-16T09:45:10;4.70;99.90
17851;DHT22;9051;51.548;14.348;2023-01-16T09:47:50;4.70;99.90
17851;DHT22;9051;51.548;14.348;2023-01-16T09:50:30;4.70;99.90
17851;DHT22;9051;51.548;14.348;2023-01-16T09:53:05;4.80;99.90
17851;DHT22;9051;51.548;14.348;2023-01-16T09:55:58;4.80;99.90
17851;DHT22;9051;51.548;14.348;2023-01-16T09:58:55;4.80;99.90
17851;DHT22;9051;51.548;14.348;2023-01-16T10:01:34;4.80;99.90
17851;DHT22;9051;51.548;14.348;2023-01-16T10:04:16;4.80;99.90
17851;DHT22;9051;51.548;14.348;2023-01-16T10:06:58;4.80;99.90
17851;DHT22;9051;51.548;14.348;2023-01-16T10:09:42;4.80;99.90
17851;DHT22;9051;51.548;14.348;2023-01-16T10:12:16;4.80;99.90
17851;DHT22;9051;51.548;14.348;2023-01-16T10:14:57;4.90;99.90
17851;DHT22;9051;51.548;14.348;2023-01-16T10:17:38;5.00;99.90
17851;DHT22;9051;51.548;14.348;2023-01-16T10:20:29;5.00;99.90
17851;DHT22;9051;51.548;14.348;2023-01-16T10:23:13;5.00;99.90
17851;DHT22;9051;51.548;14.348;2023-01-16T10:25:57;5.00;99.90
17851;DHT22;9051;51.548;14.348;2023-01-16T10:28:42;5.10;99.90
17851;DHT22;9051;51.548;14.348;2023-01-16T10:31:23;5.20;99.90
17851;DHT22;9051;51.548;14.348;2023-01-16T10:34:00;5.20;99.90
17851;DHT22;9051;51.548;14.348;2023-01-16T10:36:37;5.20;99.90
17851;DHT22;9051;51.548;14.348;2023-01-16T10:39:11;5.30;99.90
17851;DHT22;9051;51.548;14.348;2023-01-16T10:41:47;5.30;99.90
17851;DHT22;9051;51.548;14.348;2023-01-16T10:44:39;5.30;99.90
17851;DHT22;9051;51.548;14.348;2023-01-16T10:47:30;5.40;99.90
17851;DHT22;9051;51.548;14.348;2023-01-16T10:50:21;5.50;99.90
17851;DHT22;9051;51.548;14.348;2023-01-16T10:52:58;5.50;99.90
17851;DHT22;9051;51.548;14.348;2023-01-16T10:55:30;5.50;99.90
17851;DHT22;9051;51.548;14.348;2023-01-16T10:58:06;5.60;99.90
17851;DHT22;9051;51.548;14.348;2023-01-16T11:00:41;5.60;99.90
17851;DHT22;9051;51.548;14.348;2023-01-16T11:03:16;5.70;99.90
17851;DHT22;9051;51.548;14.348;2023-01-16T11:05:49;5.80;99.90
17851;DHT22;9051;51.548;14.348;2023-01-16T11:08:24;5.90;99.90
17851;DHT22;9051;51.548;14.348;2023-01-16T11:10:56;6.00;99.90
17851;DHT22;9051;51.548;14.348;2023-01-16T11:13:28;6.10;99.90
17851;DHT22;9051;51.548;14.348;2023-01-16T11:20:16;6.30;99.90
17851;DHT22;9051;51.548;14.348;2023-01-16T11:22:54;6.40;99.90
17851;DHT22;9051;51.548;14.348;2023-01-16T11:25:32;6.50;99.90
17851;DHT22;9051;51.548;14.348;2023-01-16T11:28:08;6.60;99.90
17851;DHT22;9051;51.548;14.348;2023-01-16T11:30:44;6.70;99.90
17851;DHT22;9051;51.548;14.348;2023-01-16T11:33:18;6.80;99.90
17851;DHT22;9051;51.548;14.348;2023-01-16T11:35:54;6.80;99.90
17851;DHT22;9051;51.548;14.348;2023-01-16T11:38:32;6.90;99.90
17851;DHT22;9051;51.548;14.348;2023-01-16T11:41:06;7.00;99.90
17851;DHT22;9051;51.548;14.348;2023-01-16T11:43:39;7.10;99.90
17851;DHT22;9051;51.548;14.348;2023-01-16T11:46:33;7.10;99.90
17851;DHT22;9051;51.548;14.348;2023-01-16T11:49:14;7.20;99.90
17851;DHT22;9051;51.548;14.348;2023-01-16T11:51:51;7.20;99.90
17851;DHT22;9051;51.548;14.348;2023-01-16T11:54:26;7.30;99.90
17851;DHT22;9051;51.548;14.348;2023-01-16T11:57:26;7.40;99.90
17851;DHT22;9051;51.548;14.348;2023-01-16T12:00:20;7.40;99.90
17851;DHT22;9051;51.548;14.348;2023-01-16T12:03:18;7.50;99.90
17851;DHT22;9051;51.548;14.348;2023-01-16T12:06:01;7.50;99.90
17851;DHT22;9051;51.548;14.348;2023-01-16T12:08:55;7.60;99.90
17851;DHT22;9051;51.548;14.348;2023-01-16T12:12:00;7.70;99.90
17851;DHT22;9051;51.548;14.348;2023-01-16T12:14:59;7.70;99.90
17851;DHT22;9051;51.548;14.348;2023-01-16T12:20:34;7.80;99.90
17851;DHT22;9051;51.548;14.348;2023-01-16T12:23:32;7.90;99.90
17851;DHT22;9051;51.548;14.348;2023-01-16T12:26:18;7.90;99.90
17851;DHT22;9051;51.548;14.348;2023-01-16T12:29:03;8.00;99.90
17851;DHT22;9051;51.548;14.348;2023-01-16T12:31:50;8.00;99.90
17851;DHT22;9051;51.548;14.348;2023-01-16T12:34:37;8.10;99.90
17851;DHT22;9051;51.548;14.348;2023-01-16T12:37:21;8.20;99.90
17851;DHT22;9051;51.548;14.348;2023-01-16T12:40:03;8.20;99.90
17851;DHT22;9051;51.548;14.348;2023-01-16T12:42:45;8.20;99.90
17851;DHT22;9051;51.548;14.348;2023-01-16T12:45:43;8.30;99.90
17851;DHT22;9051;51.548;14.348;2023-01-16T12:48:54;8.40;99.90
17851;DHT22;9051;51.548;14.348;2023-01-16T12:51:43;8.40;99.90
17851;DHT22;9051;51.548;14.348;2023-01-16T12:54:41;8.40;99.90
17851;DHT22;9051;51.548;14.348;2023-01-16T13:00:19;8.40;99.90
17851;DHT22;9051;51.548;14.348;2023-01-16T13:02:56;8.40;99.90
17851;DHT22;9051;51.548;14.348;2023-01-16T13:05:45;8.40;99.90
17851;DHT22;9051;51.548;14.348;2023-01-16T13:08:22;8.40;99.90
17851;DHT22;9051;51.548;14.348;2023-01-16T13:11:02;8.40;99.90
17851;DHT22;9051;51.548;14.348;2023-01-16T13:13:58;8.40;99.90
17851;DHT22;9051;51.548;14.348;2023-01-16T13:16:34;8.40;99.90
17851;DHT22;9051;51.548;14.348;2023-01-16T13:19:12;8.40;99.90
17851;DHT22;9051;51.548;14.348;2023-01-16T13:21:52;8.40;99.90
17851;DHT22;9051;51.548;14.348;2023-01-16T13:24:29;8.40;99.90
17851;DHT22;9051;51.548;14.348;2023-01-16T13:27:05;8.30;99.90
17851;DHT22;9051;51.548;14.348;2023-01-16T13:29:45;8.30;99.90
17851;DHT22;9051;51.548;14.348;2023-01-16T13:32:24;8.30;99.90
17851;DHT22;9051;51.548;14.348;2023-01-16T13:35:02;8.20;99.90
17851;DHT22;9051;51.548;14.348;2023-01-16T13:38:15;8.20;99.90
17851;DHT22;9051;51.548;14.348;2023-01-16T13:41:08;8.20;99.90
17851;DHT22;9051;51.548;14.348;2023-01-16T13:43:43;8.10;99.90
17851;DHT22;9051;51.548;14.348;2023-01-16T13:46:34;8.10;99.90
17851;DHT22;9051;51.548;14.348;2023-01-16T13:49:15;8.00;99.90
17851;DHT22;9051;51.548;14.348;2023-01-16T13:51:49;7.90;99.90
17851;DHT22;9051;51.548;14.348;2023-01-16T13:54:26;7.80;99.90
17851;DHT22;9051;51.548;14.348;2023-01-16T13:57:02;7.80;99.90
17851;DHT22;9051;51.548;14.348;2023-01-16T13:59:43;7.80;99.90
17851;DHT22;9051;51.548;14.348;2023-01-16T14:02:39;7.80;99.90
17851;DHT22;9051;51.548;14.348;2023-01-16T14:05:21;7.80;99.90
17851;DHT22;9051;51.548;14.348;2023-01-16T14:08:13;7.90;99.90
17851;DHT22;9051;51.548;14.348;2023-01-16T14:11:24;7.90;99.90
17851;DHT22;9051;51.548;14.348;2023-01-16T14:14:27;7.80;99.90
17851;DHT22;9051;51.548;14.348;2023-01-16T14:17:18;7.80;99.90
17851;DHT22;9051;51.548;14.348;2023-01-16T14:19:54;7.60;99.90
17851;DHT22;9051;51.548;14.348;2023-01-16T14:22:34;7.50;99.90
17851;DHT22;9051;51.548;14.348;2023-01-16T14:25:27;7.40;99.90
17851;DHT22;9051;51.548;14.348;2023-01-16T14:28:05;7.30;99.90
17851;DHT22;9051;51.548;14.348;2023-01-16T14:30:38;7.10;99.90
17851;DHT22;9051;51.548;14.348;2023-01-16T14:33:16;7.00;99.90
17851;DHT22;9051;51.548;14.348;2023-01-16T14:35:50;6.90;99.90
17851;DHT22;9051;51.548;14.348;2023-01-16T14:38:26;6.80;99.90
17851;DHT22;9051;51.548;14.348;2023-01-16T14:41:03;6.70;99.90
17851;DHT22;9051;51.548;14.348;2023-01-16T14:44:17;6.60;99.90
17851;DHT22;9051;51.548;14.348;2023-01-16T14:47:22;6.50;99.90
17851;DHT22;9051;51.548;14.348;2023-01-16T14:50:14;6.40;99.90
17851;DHT22;9051;51.548;14.348;2023-01-16T14:53:14;6.40;99.90
17851;DHT22;9051;51.548;14.348;2023-01-16T14:56:22;6.30;99.90
17851;DHT22;9051;51.548;14.348;2023-01-16T14:58:59;6.20;99.90
17851;DHT22;9051;51.548;14.348;2023-01-16T15:01:40;6.10;99.90
17851;DHT22;9051;51.548;14.348;2023-01-16T15:04:38;6.00;99.90
17851;DHT22;9051;51.548;14.348;2023-01-16T15:07:15;5.90;99.90
17851;DHT22;9051;51.548;14.348;2023-01-16T15:09:50;5.80;99.90
17851;DHT22;9051;51.548;14.348;2023-01-16T15:12:35;5.70;99.90
17851;DHT22;9051;51.548;14.348;2023-01-16T15:15:20;5.60;99.90
17851;DHT22;9051;51.548;14.348;2023-01-16T15:17:56;5.60;99.90
17851;DHT22;9051;51.548;14.348;2023-01-16T15:20:46;5.50;99.90
17851;DHT22;9051;51.548;14.348;2023-01-16T15:23:37;5.50;99.90
17851;DHT22;9051;51.548;14.348;2023-01-16T15:26:28;5.40;99.90
17851;DHT22;9051;51.548;14.348;2023-01-16T15:29:29;5.30;99.90
17851;DHT22;9051;51.548;14.348;2023-01-16T15:32:07;5.20;99.90
17851;DHT22;9051;51.548;14.348;2023-01-16T15:35:04;5.10;99.90
17851;DHT22;9051;51.548;14.348;2023-01-16T15:37:36;5.10;99.90
17851;DHT22;9051;51.548;14.348;2023-01-16T15:40:23;5.00;99.90
17851;DHT22;9051;51.548;14.348;2023-01-16T15:42:56;5.00;99.90
17851;DHT22;9051;51.548;14.348;2023-01-16T15:45:52;4.90;99.90
17851;DHT22;9051;51.548;14.348;2023-01-16T15:48:48;4.90;99.90
17851;DHT22;9051;51.548;14.348;2023-01-16T15:51:25;4.80;99.90
17851;DHT22;9051;51.548;14.348;2023-01-16T15:53:57;4.80;99.90
17851;DHT22;9051;51.548;14.348;2023-01-16T15:56:33;4.70;99.90
17851;DHT22;9051;51.548;14.348;2023-01-16T15:59:21;4.70;99.90
17851;DHT22;9051;51.548;14.348;2023-01-16T16:02:12;4.60;99.90
17851;DHT22;9051;51.548;14.348;2023-01-16T16:04:48;4.60;99.90
17851;DHT22;9051;51.548;14.348;2023-01-16T16:07:23;4.50;99.90
17851;DHT22;9051;51.548;14.348;2023-01-16T16:09:58;4.50;99.90
17851;DHT22;9051;51.548;14.348;2023-01-16T16:12:31;4.50;99.90
17851;DHT22;9051;51.548;14.348;2023-01-16T16:15:17;4.50;99.90
17851;DHT22;9051;51.548;14.348;2023-01-16T16:18:13;4.50;99.90
17851;DHT22;9051;51.548;14.348;2023-01-16T16:20:46;4.50;99.90
17851;DHT22;9051;51.548;14.348;2023-01-16T16:23:21;4.40;99.90
17851;DHT22;9051;51.548;14.348;2023-01-16T16:25:56;4.40;99.90
17851;DHT22;9051;51.548;14.348;2023-01-16T16:28:35;4.40;99.90
17851;DHT22;9051;51.548;14.348;2023-01-16T16:31:14;4.30;99.90
17851;DHT22;9051;51.548;14.348;2023-01-16T16:33:54;4.30;99.90
17851;DHT22;9051;51.548;14.348;2023-01-16T16:36:28;4.30;99.90
17851;DHT22;9051;51.548;14.348;2023-01-16T16:39:27;4.20;99.90
17851;DHT22;9051;51.548;14.348;2023-01-16T16:42:00;4.20;99.90
17851;DHT22;9051;51.548;14.348;2023-01-16T16:45:07;4.20;99.90
17851;DHT22;9051;51.548;14.348;2023-01-16T16:47:41;4.30;99.90
17851;DHT22;9051;51.548;14.348;2023-01-16T16:50:38;4.30;99.90
17851;DHT22;9051;51.548;14.348;2023-01-16T16:53:13;4.30;99.90
17851;DHT22;9051;51.548;14.348;2023-01-16T16:55:48;4.20;99.90
17851;DHT22;9051;51.548;14.348;2023-01-16T16:58:22;4.30;99.90
17851;DHT22;9051;51.548;14.348;2023-01-16T17:00:55;4.30;99.90
17851;DHT22;9051;51.548;14.348;2023-01-16T17:03:27;4.30;99.90
17851;DHT22;9051;51.548;14.348;2023-01-16T17:06:01;4.30;99.90
17851;DHT22;9051;51.548;14.348;2023-01-16T17:08:34;4.40;99.90
17851;DHT22;9051;51.548;14.348;2023-01-16T17:11:10;4.40;99.90
17851;DHT22;9051;51.548;14.348;2023-01-16T17:13:42;4.40;99.90